sensor_id;sensor_type;location;lat;lon;timestamp;temperature;humidity
25923;DHT22;13725;51.170;4.442;2023-02-01T00:02:00;6.30;99.90
25923;DHT22;13725;51.170;4.442;2023-02-01T00:04:26;6.40;99.90
25923;DHT22;13725;51.170;4.442;2023-02-01T00:06:52;6.40;99.90
25923;DHT22;13725;51.170;4.442;2023-02-01T00:09:18;6.50;99.90
25923;DHT22;13725;51.170;4.442;2023-02-01T00:11:44;6.50;99.90
25923;DHT22;13725;51.170;4.442;2023-02-01T00:14:09;6.60;99.90
25923;DHT22;13725;51.170;4.442;2023-02-01T00:16:35;6.60;99.90
25923;DHT22;13725;51.170;4.442;2023-02-01T00:19:07;6.60;99.90
25923;DHT22;13725;51.170;4.442;2023-02-01T00:21:33;6.60;99.90
25923;DHT22;13725;51.170;4.442;2023-02-01T00:23:59;6.50;99.90
25923;DHT22;13725;51.170;4.442;2023-02-01T00:26:32;6.50;99.90
25923;DHT22;13725;51.170;4.442;2023-02-01T00:28:59;6.40;99.90
25923;DHT22;13725;51.170;4.442;2023-02-01T00:31:26;6.30;99.90
25923;DHT22;13725;51.170;4.442;2023-02-01T00:33:51;6.20;99.90
25923;DHT22;13725;51.170;4.442;2023-02-01T00:36:19;6.30;99.90
25923;DHT22;13725;51.170;4.442;2023-02-01T00:38:45;6.10;99.90
25923;DHT22;13725;51.170;4.442;2023-02-01T00:41:14;6.00;99.90
25923;DHT22;13725;51.170;4.442;2023-02-01T00:43:40;6.00;99.90
25923;DHT22;13725;51.170;4.442;2023-02-01T00:46:06;5.90;99.90
25923;DHT22;13725;51.170;4.442;2023-02-01T00:48:34;5.80;99.90
25923;DHT22;13725;51.170;4.442;2023-02-01T00:51:05;5.80;99.90
25923;DHT22;13725;51.170;4.442;2023-02-01T00:53:32;5.70;99.90
25923;DHT22;13725;51.170;4.442;2023-02-01T00:55:59;5.70;99.90
25923;DHT22;13725;51.170;4.442;2023-02-01T00:58:24;5.70;99.90
25923;DHT22;13725;51.170;4.442;2023-02-01T01:01:19;5.60;99.90
25923;DHT22;13725;51.170;4.442;2023-02-01T01:03:56;5.60;99.90
25923;DHT22;13725;51.170;4.442;2023-02-01T01:06:27;5.50;99.90
25923;DHT22;13725;51.170;4.442;2023-02-01T01:08:55;5.50;99.90
25923;DHT22;13725;51.170;4.442;2023-02-01T01:11:24;5.50;99.90
25923;DHT22;13725;51.170;4.442;2023-02-01T01:13:52;5.50;99.90
25923;DHT22;13725;51.170;4.442;2023-02-01T01:16:19;5.40;99.90
25923;DHT22;13725;51.170;4.442;2023-02-01T01:18:53;5.40;99.90
25923;DHT22;13725;51.170;4.442;2023-02-01T01:21:22;5.40;99.90
25923;DHT22;13725;51.170;4.442;2023-02-01T01:23:48;5.50;99.90
25923;DHT22;13725;51.170;4.442;2023-02-01T01:26:20;5.30;99.90
25923;DHT22;13725;51.170;4.442;2023-02-01T01:28:46;5.40;99.90
25923;DHT22;13725;51.170;4.442;2023-02-01T01:31:14;5.30;99.90
25923;DHT22;13725;51.170;4.442;2023-02-01T01:33:40;5.30;99.90
25923;DHT22;13725;51.170;4.442;2023-02-01T01:36:11;5.30;99.90
25923;DHT22;13725;51.170;4.442;2023-02-01T01:38:38;5.30;99.90
25923;DHT22;13725;51.170;4.442;2023-02-01T01:41:04;5.30;99.90
25923;DHT22;13725;51.170;4.442;2023-02-01T01:43:54;5.30;99.90
25923;DHT22;13725;51.170;4.442;2023-02-01T01:49:06;5.20;99.90
25923;DHT22;13725;51.170;4.442;2023-02-01T01:51:37;5.30;99.90
25923;DHT22;13725;51.170;4.442;2023-02-01T01:54:18;5.20;99.90
25923;DHT22;13725;51.170;4.442;2023-02-01T01:56:52;5.30;99.90
25923;DHT22;13725;51.170;4.442;2023-02-01T01:59:22;5.20;99.90
25923;DHT22;13725;51.170;4.442;2023-02-01T02:01:49;5.20;99.90
25923;DHT22;13725;51.170;4.442;2023-02-01T02:04:15;5.10;99.90
25923;DHT22;13725;51.170;4.442;2023-02-01T02:06:47;5.10;99.90
25923;DHT22;13725;51.170;4.442;2023-02-01T02:09:16;5.10;99.90
25923;DHT22;13725;51.170;4.442;2023-02-01T02:11:42;5.20;99.90
25923;DHT22;13725;51.170;4.442;2023-02-01T02:14:10;5.10;99.90
25923;DHT22;13725;51.170;4.442;2023-02-01T02:31:15;5.20;99.90
25923;DHT22;13725;51.170;4.442;2023-02-01T02:41:53;5.10;99.90
25923;DHT22;13725;51.170;4.442;2023-02-01T02:44:52;5.00;99.90
25923;DHT22;13725;51.170;4.442;2023-02-01T02:48:02;5.00;99.90
25923;DHT22;13725;51.170;4.442;2023-02-01T02:50:30;5.00;99.90
25923;DHT22;13725;51.170;4.442;2023-02-01T02:53:23;5.00;99.90
25923;DHT22;13725;51.170;4.442;2023-02-01T02:56:12;5.00;99.90
25923;DHT22;13725;51.170;4.442;2023-02-01T02:58:59;5.00;99.90
25923;DHT22;13725;51.170;4.442;2023-02-01T03:01:45;5.00;99.90
25923;DHT22;13725;51.170;4.442;2023-02-01T03:04:29;5.00;99.90
25923;DHT22;13725;51.170;4.442;2023-02-01T03:06:55;5.00;99.90
25923;DHT22;13725;51.170;4.442;2023-02-01T03:09:26;5.10;99.90
25923;DHT22;13725;51.170;4.442;2023-02-01T03:12:01;5.20;99.90
25923;DHT22;13725;51.170;4.442;2023-02-01T03:14:51;5.20;99.90
25923;DHT22;13725;51.170;4.442;2023-02-01T03:17:22;5.10;99.90
25923;DHT22;13725;51.170;4.442;2023-02-01T03:19:52;5.20;99.90
25923;DHT22;13725;51.170;4.442;2023-02-01T03:22:24;5.20;99.90
25923;DHT22;13725;51.170;4.442;2023-02-01T03:25:04;5.30;99.90
25923;DHT22;13725;51.170;4.442;2023-02-01T03:27:37;5.40;99.90
25923;DHT22;13725;51.170;4.442;2023-02-01T03:30:26;5.40;99.90
25923;DHT22;13725;51.170;4.442;2023-02-01T03:32:56;5.30;99.90
25923;DHT22;13725;51.170;4.442;2023-02-01T03:39:15;5.30;99.90
25923;DHT22;13725;51.170;4.442;2023-02-01T03:41:58;5.30;99.90
25923;DHT22;13725;51.170;4.442;2023-02-01T03:44:32;5.20;99.90
25923;DHT22;13725;51.170;4.442;2023-02-01T03:47:05;5.20;99.90
25923;DHT22;13725;51.170;4.442;2023-02-01T03:49:40;5.10;99.90
25923;DHT22;13725;51.170;4.442;2023-02-01T03:52:44;5.10;99.90
25923;DHT22;13725;51.170;4.442;2023-02-01T03:55:04;5.10;99.90
25923;DHT22;13725;51.170;4.442;2023-02-01T03:57:34;5.10;99.90
25923;DHT22;13725;51.170;4.442;2023-02-01T04:00:14;5.00;99.90
25923;DHT22;13725;51.170;4.442;2023-02-01T04:02:40;5.00;99.90
25923;DHT22;13725;51.170;4.442;2023-02-01T04:05:07;5.00;99.90
25923;DHT22;13725;51.170;4.442;2023-02-01T04:07:33;5.00;99.90
25923;DHT22;13725;51.170;4.442;2023-02-01T04:09:58;5.00;99.90
25923;DHT22;13725;51.170;4.442;2023-02-01T04:12:24;5.00;99.90
25923;DHT22;13725;51.170;4.442;2023-02-01T04:14:49;5.00;99.90
25923;DHT22;13725;51.170;4.442;2023-02-01T04:17:15;5.10;99.90
25923;DHT22;13725;51.170;4.442;2023-02-01T04:19:41;5.10;99.90
25923;DHT22;13725;51.170;4.442;2023-02-01T04:22:09;5.20;99.90
25923;DHT22;13725;51.170;4.442;2023-02-01T04:24:37;5.00;99.90
25923;DHT22;13725;51.170;4.442;2023-02-01T04:27:03;5.00;99.90
25923;DHT22;13725;51.170;4.442;2023-02-01T04:29:29;4.90;99.90
25923;DHT22;13725;51.170;4.442;2023-02-01T04:31:55;4.90;99.90
25923;DHT22;13725;51.170;4.442;2023-02-01T04:34:23;5.00;99.90
25923;DHT22;13725;51.170;4.442;2023-02-01T04:36:50;5.00;99.90
25923;DHT22;13725;51.170;4.442;2023-02-01T04:39:16;5.00;99.90
25923;DHT22;13725;51.170;4.442;2023-02-01T04:41:42;5.00;99.90
25923;DHT22;13725;51.170;4.442;2023-02-01T04:44:17;5.00;99.90
25923;DHT22;13725;51.170;4.442;2023-02-01T04:46:43;5.00;99.90
25923;DHT22;13725;51.170;4.442;2023-02-01T04:49:10;5.00;99.90
25923;DHT22;13725;51.170;4.442;2023-02-01T04:51:35;5.00;99.90
25923;DHT22;13725;51.170;4.442;2023-02-01T04:54:01;5.00;99.90
25923;DHT22;13725;51.170;4.442;2023-02-01T04:56:27;4.90;99.90
25923;DHT22;13725;51.170;4.442;2023-02-01T04:58:53;4.90;99.90
25923;DHT22;13725;51.170;4.442;2023-02-01T05:01:22;4.90;99.90
25923;DHT22;13725;51.170;4.442;2023-02-01T05:03:48;4.90;99.90
25923;DHT22;13725;51.170;4.442;2023-02-01T05:06:13;5.00;99.90
25923;DHT22;13725;51.170;4.442;2023-02-01T05:08:41;4.90;99.90
25923;DHT22;13725;51.170;4.442;2023-02-01T05:11:09;4.90;99.90
25923;DHT22;13725;51.170;4.442;2023-02-01T05:13:55;4.90;99.90
25923;DHT22;13725;51.170;4.442;2023-02-01T05:16:21;5.00;99.90
25923;DHT22;13725;51.170;4.442;2023-02-01T05:18:46;4.90;99.90
25923;DHT22;13725;51.170;4.442;2023-02-01T05:21:12;4.90;99.90
25923;DHT22;13725;51.170;4.442;2023-02-01T05:23:41;5.00;99.90
25923;DHT22;13725;51.170;4.442;2023-02-01T05:26:25;5.00;99.90
25923;DHT22;13725;51.170;4.442;2023-02-01T05:28:53;5.00;99.90
25923;DHT22;13725;51.170;4.442;2023-02-01T05:31:18;5.00;99.90
25923;DHT22;13725;51.170;4.442;2023-02-01T05:33:47;5.00;99.90
25923;DHT22;13725;51.170;4.442;2023-02-01T05:36:13;5.00;99.90
25923;DHT22;13725;51.170;4.442;2023-02-01T05:38:41;4.80;99.90
25923;DHT22;13725;51.170;4.442;2023-02-01T05:41:07;4.80;99.90
25923;DHT22;13725;51.170;4.442;2023-02-01T05:43:33;4.80;99.90
25923;DHT22;13725;51.170;4.442;2023-02-01T05:45:59;4.80;99.90
25923;DHT22;13725;51.170;4.442;2023-02-01T05:48:25;4.80;99.90
25923;DHT22;13725;51.170;4.442;2023-02-01T05:50:52;4.80;99.90
25923;DHT22;13725;51.170;4.442;2023-02-01T05:53:18;4.80;99.90
25923;DHT22;13725;51.170;4.442;2023-02-01T05:55:44;4.90;99.90
25923;DHT22;13725;51.170;4.442;2023-02-01T05:58:09;4.90;99.90
25923;DHT22;13725;51.170;4.442;2023-02-01T06:00:35;4.80;99.90
25923;DHT22;13725;51.170;4.442;2023-02-01T06:03:01;4.90;99.90
25923;DHT22;13725;51.170;4.442;2023-02-01T06:05:27;4.90;99.90
25923;DHT22;13725;51.170;4.442;2023-02-01T06:07:55;4.90;99.90
25923;DHT22;13725;51.170;4.442;2023-02-01T06:10:21;4.90;99.90
25923;DHT22;13725;51.170;4.442;2023-02-01T06:12:47;4.90;99.90
25923;DHT22;13725;51.170;4.442;2023-02-01T06:15:13;4.90;99.90
25923;DHT22;13725;51.170;4.442;2023-02-01T06:17:41;4.80;99.90
25923;DHT22;13725;51.170;4.442;2023-02-01T06:20:09;4.90;99.90
25923;DHT22;13725;51.170;4.442;2023-02-01T06:22:35;4.90;99.90
25923;DHT22;13725;51.170;4.442;2023-02-01T06:25:02;4.90;99.90
25923;DHT22;13725;51.170;4.442;2023-02-01T06:27:28;4.90;99.90
25923;DHT22;13725;51.170;4.442;2023-02-01T06:29:56;4.80;99.90
25923;DHT22;13725;51.170;4.442;2023-02-01T06:32:22;4.80;99.90
25923;DHT22;13725;51.170;4.442;2023-02-01T06:34:49;4.90;99.90
25923;DHT22;13725;51.170;4.442;2023-02-01T06:37:14;4.90;99.90
25923;DHT22;13725;51.170;4.442;2023-02-01T06:39:40;4.80;99.90
25923;DHT22;13725;51.170;4.442;2023-02-01T06:42:06;4.90;99.90
25923;DHT22;13725;51.170;4.442;2023-02-01T06:44:31;4.90;99.90
25923;DHT22;13725;51.170;4.442;2023-02-01T06:46:57;4.90;99.90
25923;DHT22;13725;51.170;4.442;2023-02-01T06:49:23;5.10;99.90
25923;DHT22;13725;51.170;4.442;2023-02-01T06:51:49;4.80;99.90
25923;DHT22;13725;51.170;4.442;2023-02-01T06:54:14;4.80;99.90
25923;DHT22;13725;51.170;4.442;2023-02-01T06:56:40;4.80;99.90
25923;DHT22;13725;51.170;4.442;2023-02-01T06:59:06;4.70;99.90
25923;DHT22;13725;51.170;4.442;2023-02-01T07:01:33;4.70;99.90
25923;DHT22;13725;51.170;4.442;2023-02-01T07:03:59;4.70;99.90
25923;DHT22;13725;51.170;4.442;2023-02-01T07:06:24;4.70;99.90
25923;DHT22;13725;51.170;4.442;2023-02-01T07:08:51;4.80;99.90
25923;DHT22;13725;51.170;4.442;2023-02-01T07:11:18;4.80;99.90
25923;DHT22;13725;51.170;4.442;2023-02-01T07:13:44;4.80;99.90
25923;DHT22;13725;51.170;4.442;2023-02-01T07:16:14;4.90;99.90
25923;DHT22;13725;51.170;4.442;2023-02-01T07:18:40;5.00;99.90
25923;DHT22;13725;51.170;4.442;2023-02-01T07:21:06;4.90;99.90
25923;DHT22;13725;51.170;4.442;2023-02-01T07:23:32;4.90;99.90
25923;DHT22;13725;51.170;4.442;2023-02-01T07:25:59;4.90;99.90
25923;DHT22;13725;51.170;4.442;2023-02-01T07:28:27;4.90;99.90
25923;DHT22;13725;51.170;4.442;2023-02-01T07:30:53;5.00;99.90
25923;DHT22;13725;51.170;4.442;2023-02-01T07:33:21;5.00;99.90
25923;DHT22;13725;51.170;4.442;2023-02-01T07:35:47;5.00;99.90
25923;DHT22;13725;51.170;4.442;2023-02-01T07:38:17;5.00;99.90
25923;DHT22;13725;51.170;4.442;2023-02-01T07:40:43;4.90;99.90
25923;DHT22;13725;51.170;4.442;2023-02-01T07:43:09;4.90;99.90
25923;DHT22;13725;51.170;4.442;2023-02-01T07:45:35;5.10;99.90
25923;DHT22;13725;51.170;4.442;2023-02-01T07:48:02;5.30;99.90
25923;DHT22;13725;51.170;4.442;2023-02-01T07:50:28;5.10;99.90
25923;DHT22;13725;51.170;4.442;2023-02-01T07:52:53;5.10;99.90
25923;DHT22;13725;51.170;4.442;2023-02-01T07:55:20;5.20;99.90
25923;DHT22;13725;51.170;4.442;2023-02-01T07:57:46;5.30;99.90
25923;DHT22;13725;51.170;4.442;2023-02-01T08:00:12;5.50;99.90
25923;DHT22;13725;51.170;4.442;2023-02-01T08:03:00;5.70;99.90
25923;DHT22;13725;51.170;4.442;2023-02-01T08:05:26;5.80;99.90
25923;DHT22;13725;51.170;4.442;2023-02-01T08:07:52;5.90;99.90
25923;DHT22;13725;51.170;4.442;2023-02-01T08:10:18;6.00;99.90
25923;DHT22;13725;51.170;4.442;2023-02-01T08:12:44;6.00;99.90
25923;DHT22;13725;51.170;4.442;2023-02-01T08:15:14;6.10;99.90
25923;DHT22;13725;51.170;4.442;2023-02-01T08:17:49;6.10;99.90
25923;DHT22;13725;51.170;4.442;2023-02-01T08:20:16;6.10;99.90
25923;DHT22;13725;51.170;4.442;2023-02-01T08:22:42;6.10;99.90
25923;DHT22;13725;51.170;4.442;2023-02-01T08:25:10;6.10;99.90
25923;DHT22;13725;51.170;4.442;2023-02-01T08:27:37;6.20;99.90
25923;DHT22;13725;51.170;4.442;2023-02-01T08:30:04;6.10;99.90
25923;DHT22;13725;51.170;4.442;2023-02-01T08:32:30;6.20;99.90
25923;DHT22;13725;51.170;4.442;2023-02-01T08:34:56;6.20;99.90
25923;DHT22;13725;51.170;4.442;2023-02-01T08:37:22;6.30;99.90
25923;DHT22;13725;51.170;4.442;2023-02-01T08:39:47;6.40;99.90
25923;DHT22;13725;51.170;4.442;2023-02-01T08:42:16;6.50;99.90
25923;DHT22;13725;51.170;4.442;2023-02-01T08:45:01;6.60;99.90
25923;DHT22;13725;51.170;4.442;2023-02-01T08:47:28;6.90;99.90
25923;DHT22;13725;51.170;4.442;2023-02-01T08:49:54;6.80;99.90
25923;DHT22;13725;51.170;4.442;2023-02-01T08:52:19;7.00;99.90
25923;DHT22;13725;51.170;4.442;2023-02-01T08:54:45;7.10;99.90
25923;DHT22;13725;51.170;4.442;2023-02-01T08:57:11;7.20;99.90
25923;DHT22;13725;51.170;4.442;2023-02-01T08:59:37;7.40;99.90
25923;DHT22;13725;51.170;4.442;2023-02-01T09:02:02;7.50;99.90
25923;DHT22;13725;51.170;4.442;2023-02-01T09:04:28;7.50;99.90
25923;DHT22;13725;51.170;4.442;2023-02-01T09:06:54;7.70;99.90
25923;DHT22;13725;51.170;4.442;2023-02-01T09:09:22;7.70;99.90
25923;DHT22;13725;51.170;4.442;2023-02-01T09:11:47;7.90;99.90
25923;DHT22;13725;51.170;4.442;2023-02-01T09:14:13;8.00;99.90
25923;DHT22;13725;51.170;4.442;2023-02-01T09:16:39;8.30;99.90
25923;DHT22;13725;51.170;4.442;2023-02-01T09:19:04;8.60;99.90
25923;DHT22;13725;51.170;4.442;2023-02-01T09:21:30;9.10;99.90
25923;DHT22;13725;51.170;4.442;2023-02-01T09:23:55;9.30;99.90
25923;DHT22;13725;51.170;4.442;2023-02-01T09:26:23;9.80;99.90
25923;DHT22;13725;51.170;4.442;2023-02-01T09:28:49;10.30;99.90
25923;DHT22;13725;51.170;4.442;2023-02-01T09:31:15;11.00;99.90
25923;DHT22;13725;51.170;4.442;2023-02-01T09:33:40;11.70;99.90
25923;DHT22;13725;51.170;4.442;2023-02-01T09:36:06;11.80;99.90
25923;DHT22;13725;51.170;4.442;2023-02-01T09:38:34;12.20;99.90
25923;DHT22;13725;51.170;4.442;2023-02-01T09:41:00;13.10;99.90
25923;DHT22;13725;51.170;4.442;2023-02-01T09:43:45;13.50;99.90
25923;DHT22;13725;51.170;4.442;2023-02-01T09:46:28;14.00;99.90
25923;DHT22;13725;51.170;4.442;2023-02-01T09:48:57;13.90;99.90
25923;DHT22;13725;51.170;4.442;2023-02-01T09:51:34;13.90;99.90
25923;DHT22;13725;51.170;4.442;2023-02-01T09:56:39;14.50;99.90
25923;DHT22;13725;51.170;4.442;2023-02-01T10:01:50;15.60;99.90
25923;DHT22;13725;51.170;4.442;2023-02-01T10:04:17;15.80;99.90
25923;DHT22;13725;51.170;4.442;2023-02-01T10:09:49;16.60;99.90
25923;DHT22;13725;51.170;4.442;2023-02-01T10:12:41;16.90;99.90
25923;DHT22;13725;51.170;4.442;2023-02-01T10:15:33;17.30;99.90
25923;DHT22;13725;51.170;4.442;2023-02-01T10:18:27;17.80;99.90
25923;DHT22;13725;51.170;4.442;2023-02-01T10:21:09;19.00;99.90
25923;DHT22;13725;51.170;4.442;2023-02-01T10:24:06;19.20;99.90
25923;DHT22;13725;51.170;4.442;2023-02-01T10:26:42;20.70;99.90
25923;DHT22;13725;51.170;4.442;2023-02-01T10:29:16;20.70;99.90
25923;DHT22;13725;51.170;4.442;2023-02-01T10:31:44;21.70;99.90
25923;DHT22;13725;51.170;4.442;2023-02-01T10:34:26;21.90;99.90
25923;DHT22;13725;51.170;4.442;2023-02-01T10:36:55;21.70;99.30
25923;DHT22;13725;51.170;4.442;2023-02-01T10:39:21;22.60;97.80
25923;DHT22;13725;51.170;4.442;2023-02-01T10:41:48;22.90;96.60
25923;DHT22;13725;51.170;4.442;2023-02-01T10:44:16;23.60;95.70
25923;DHT22;13725;51.170;4.442;2023-02-01T10:46:43;24.20;93.00
25923;DHT22;13725;51.170;4.442;2023-02-01T10:49:16;24.80;91.70
25923;DHT22;13725;51.170;4.442;2023-02-01T10:51:47;25.00;88.80
25923;DHT22;13725;51.170;4.442;2023-02-01T10:54:19;24.80;88.30
25923;DHT22;13725;51.170;4.442;2023-02-01T10:56:46;24.80;84.50
25923;DHT22;13725;51.170;4.442;2023-02-01T10:59:18;24.20;86.40
25923;DHT22;13725;51.170;4.442;2023-02-01T11:01:46;23.70;87.80
25923;DHT22;13725;51.170;4.442;2023-02-01T11:04:14;22.80;86.30
25923;DHT22;13725;51.170;4.442;2023-02-01T11:06:45;21.80;88.90
25923;DHT22;13725;51.170;4.442;2023-02-01T11:09:19;20.30;91.10
25923;DHT22;13725;51.170;4.442;2023-02-01T11:17:20;16.80;99.90
25923;DHT22;13725;51.170;4.442;2023-02-01T11:20:19;16.10;99.90
25923;DHT22;13725;51.170;4.442;2023-02-01T11:22:54;15.50;99.90
25923;DHT22;13725;51.170;4.442;2023-02-01T11:25:20;15.00;99.90
25923;DHT22;13725;51.170;4.442;2023-02-01T11:27:48;14.60;99.90
25923;DHT22;13725;51.170;4.442;2023-02-01T11:30:33;14.60;99.90
25923;DHT22;13725;51.170;4.442;2023-02-01T11:33:01;14.40;99.90
25923;DHT22;13725;51.170;4.442;2023-02-01T11:35:28;13.90;99.90
25923;DHT22;13725;51.170;4.442;2023-02-01T11:37:57;13.90;99.90
25923;DHT22;13725;51.170;4.442;2023-02-01T11:40:36;13.30;99.90
25923;DHT22;13725;51.170;4.442;2023-02-01T11:46:01;12.80;99.90
25923;DHT22;13725;51.170;4.442;2023-02-01T11:48:29;13.00;99.90
25923;DHT22;13725;51.170;4.442;2023-02-01T11:51:21;13.00;99.90
25923;DHT22;13725;51.170;4.442;2023-02-01T11:56:37;12.40;99.90
25923;DHT22;13725;51.170;4.442;2023-02-01T12:07:32;12.10;99.90
25923;DHT22;13725;51.170;4.442;2023-02-01T12:15:43;13.20;99.90
25923;DHT22;13725;51.170;4.442;2023-02-01T12:24:09;12.10;99.90
25923;DHT22;13725;51.170;4.442;2023-02-01T12:29:48;11.80;99.90
25923;DHT22;13725;51.170;4.442;2023-02-01T12:32:20;11.40;99.90
25923;DHT22;13725;51.170;4.442;2023-02-01T12:43:11;11.20;99.90
25923;DHT22;13725;51.170;4.442;2023-02-01T12:45:47;11.10;99.90
25923;DHT22;13725;51.170;4.442;2023-02-01T12:48:33;11.20;99.90
25923;DHT22;13725;51.170;4.442;2023-02-01T12:51:12;11.20;99.90
25923;DHT22;13725;51.170;4.442;2023-02-01T12:53:52;11.20;99.90
25923;DHT22;13725;51.170;4.442;2023-02-01T12:56:29;11.00;99.90
25923;DHT22;13725;51.170;4.442;2023-02-01T12:58:59;11.10;99.90
25923;DHT22;13725;51.170;4.442;2023-02-01T13:01:37;11.20;99.90
25923;DHT22;13725;51.170;4.442;2023-02-01T13:07:12;11.20;99.90
25923;DHT22;13725;51.170;4.442;2023-02-01T13:09:49;11.20;99.90
25923;DHT22;13725;51.170;4.442;2023-02-01T13:12:22;11.20;99.90
25923;DHT22;13725;51.170;4.442;2023-02-01T13:14:55;11.10;99.90
25923;DHT22;13725;51.170;4.442;2023-02-01T13:17:28;11.30;99.90
25923;DHT22;13725;51.170;4.442;2023-02-01T13:19:59;11.20;99.90
25923;DHT22;13725;51.170;4.442;2023-02-01T13:27:47;11.00;99.90
25923;DHT22;13725;51.170;4.442;2023-02-01T13:30:23;11.10;99.90
25923;DHT22;13725;51.170;4.442;2023-02-01T13:43:50;10.80;99.90
25923;DHT22;13725;51.170;4.442;2023-02-01T13:46:17;10.70;99.90
25923;DHT22;13725;51.170;4.442;2023-02-01T13:48:53;10.70;99.90
25923;DHT22;13725;51.170;4.442;2023-02-01T13:51:37;10.80;99.90
25923;DHT22;13725;51.170;4.442;2023-02-01T13:54:04;10.80;99.90
25923;DHT22;13725;51.170;4.442;2023-02-01T13:56:42;10.70;99.90
25923;DHT22;13725;51.170;4.442;2023-02-01T14:16:15;10.60;99.90
25923;DHT22;13725;51.170;4.442;2023-02-01T14:21:32;10.50;99.90
25923;DHT22;13725;51.170;4.442;2023-02-01T14:24:01;10.40;99.90
25923;DHT22;13725;51.170;4.442;2023-02-01T14:32:06;10.20;99.90
25923;DHT22;13725;51.170;4.442;2023-02-01T14:37:32;10.10;99.90
25923;DHT22;13725;51.170;4.442;2023-02-01T14:40:03;10.00;99.90
25923;DHT22;13725;51.170;4.442;2023-02-01T14:50:38;10.10;99.90
25923;DHT22;13725;51.170;4.442;2023-02-01T14:56:07;10.00;99.90
25923;DHT22;13725;51.170;4.442;2023-02-01T14:58:42;10.00;99.90
25923;DHT22;13725;51.170;4.442;2023-02-01T15:01:33;9.90;99.90
25923;DHT22;13725;51.170;4.442;2023-02-01T15:04:10;9.80;99.90
25923;DHT22;13725;51.170;4.442;2023-02-01T15:06:42;9.90;99.90
25923;DHT22;13725;51.170;4.442;2023-02-01T15:09:20;10.00;99.90
25923;DHT22;13725;51.170;4.442;2023-02-01T15:11:58;9.90;99.90
25923;DHT22;13725;51.170;4.442;2023-02-01T15:14:26;9.90;99.90
25923;DHT22;13725;51.170;4.442;2023-02-01T15:16:52;9.90;99.90
25923;DHT22;13725;51.170;4.442;2023-02-01T15:19:26;9.90;99.90
25923;DHT22;13725;51.170;4.442;2023-02-01T15:21:56;9.90;99.90
25923;DHT22;13725;51.170;4.442;2023-02-01T15:24:29;10.00;99.90
25923;DHT22;13725;51.170;4.442;2023-02-01T15:26:56;9.80;99.90
25923;DHT22;13725;51.170;4.442;2023-02-01T15:29:27;9.90;99.90
25923;DHT22;13725;51.170;4.442;2023-02-01T15:31:58;9.70;99.90
25923;DHT22;13725;51.170;4.442;2023-02-01T15:34:33;9.80;99.90
25923;DHT22;13725;51.170;4.442;2023-02-01T15:37:13;9.70;99.90
25923;DHT22;13725;51.170;4.442;2023-02-01T15:40:04;9.90;99.90
25923;DHT22;13725;51.170;4.442;2023-02-01T15:42:31;9.70;99.90
25923;DHT22;13725;51.170;4.442;2023-02-01T15:44:56;9.70;99.90
25923;DHT22;13725;51.170;4.442;2023-02-01T15:47:29;9.90;99.90
25923;DHT22;13725;51.170;4.442;2023-02-01T15:49:58;9.60;99.90
25923;DHT22;13725;51.170;4.442;2023-02-01T15:52:36;9.70;99.90
25923;DHT22;13725;51.170;4.442;2023-02-01T15:55:08;9.70;99.90
25923;DHT22;13725;51.170;4.442;2023-02-01T15:57:42;9.70;99.90
25923;DHT22;13725;51.170;4.442;2023-02-01T16:00:22;9.70;99.90
25923;DHT22;13725;51.170;4.442;2023-02-01T16:02:59;9.70;99.90
25923;DHT22;13725;51.170;4.442;2023-02-01T16:10:41;9.70;99.90
25923;DHT22;13725;51.170;4.442;2023-02-01T16:13:08;9.90;99.90
25923;DHT22;13725;51.170;4.442;2023-02-01T16:15:33;9.70;99.90
25923;DHT22;13725;51.170;4.442;2023-02-01T16:18:00;9.80;99.90
25923;DHT22;13725;51.170;4.442;2023-02-01T16:20:26;9.90;99.90
25923;DHT22;13725;51.170;4.442;2023-02-01T16:22:52;9.70;99.90
25923;DHT22;13725;51.170;4.442;2023-02-01T16:25:18;9.70;99.90
25923;DHT22;13725;51.170;4.442;2023-02-01T16:27:43;9.80;99.90
25923;DHT22;13725;51.170;4.442;2023-02-01T16:30:09;9.80;99.90
25923;DHT22;13725;51.170;4.442;2023-02-01T16:32:36;9.60;99.90
25923;DHT22;13725;51.170;4.442;2023-02-01T16:35:17;9.80;99.90
25923;DHT22;13725;51.170;4.442;2023-02-01T16:37:45;9.60;99.90
25923;DHT22;13725;51.170;4.442;2023-02-01T16:40:15;9.60;99.90
25923;DHT22;13725;51.170;4.442;2023-02-01T16:42:41;9.70;99.90
25923;DHT22;13725;51.170;4.442;2023-02-01T16:45:07;9.70;99.90
25923;DHT22;13725;51.170;4.442;2023-02-01T16:47:36;9.70;99.90
25923;DHT22;13725;51.170;4.442;2023-02-01T16:50:03;9.60;99.90
25923;DHT22;13725;51.170;4.442;2023-02-01T16:52:29;9.60;99.90
25923;DHT22;13725;51.170;4.442;2023-02-01T16:54:54;9.60;99.90
25923;DHT22;13725;51.170;4.442;2023-02-01T16:57:21;9.50;99.90
25923;DHT22;13725;51.170;4.442;2023-02-01T16:59:49;9.60;99.90
25923;DHT22;13725;51.170;4.442;2023-02-01T17:02:19;9.60;99.90
25923;DHT22;13725;51.170;4.442;2023-02-01T17:04:45;9.60;99.90
25923;DHT22;13725;51.170;4.442;2023-02-01T17:07:16;9.60;99.90
25923;DHT22;13725;51.170;4.442;2023-02-01T17:09:42;9.60;99.90
25923;DHT22;13725;51.170;4.442;2023-02-01T17:12:28;9.60;99.90
25923;DHT22;13725;51.170;4.442;2023-02-01T17:14:56;9.60;99.90
25923;DHT22;13725;51.170;4.442;2023-02-01T17:17:33;9.50;99.90
25923;DHT22;13725;51.170;4.442;2023-02-01T17:20:01;9.60;99.90
25923;DHT22;13725;51.170;4.442;2023-02-01T17:22:28;9.50;99.90
25923;DHT22;13725;51.170;4.442;2023-02-01T17:24:54;9.40;99.90
25923;DHT22;13725;51.170;4.442;2023-02-01T17:27:19;9.40;99.90
25923;DHT22;13725;51.170;4.442;2023-02-01T17:29:45;9.50;99.90
25923;DHT22;13725;51.170;4.442;2023-02-01T17:32:18;9.50;99.90
25923;DHT22;13725;51.170;4.442;2023-02-01T17:34:44;9.50;99.90
25923;DHT22;13725;51.170;4.442;2023-02-01T17:37:26;9.70;99.90
25923;DHT22;13725;51.170;4.442;2023-02-01T17:39:52;9.40;99.90
25923;DHT22;13725;51.170;4.442;2023-02-01T17:42:21;9.40;99.90
25923;DHT22;13725;51.170;4.442;2023-02-01T17:44:55;9.40;99.90
25923;DHT22;13725;51.170;4.442;2023-02-01T17:47:23;9.50;99.90
25923;DHT22;13725;51.170;4.442;2023-02-01T17:49:49;9.50;99.90
25923;DHT22;13725;51.170;4.442;2023-02-01T17:52:22;9.60;99.90
25923;DHT22;13725;51.170;4.442;2023-02-01T17:54:48;9.40;99.90
25923;DHT22;13725;51.170;4.442;2023-02-01T17:57:16;9.40;99.90
25923;DHT22;13725;51.170;4.442;2023-02-01T17:59:42;9.40;99.90
25923;DHT22;13725;51.170;4.442;2023-02-01T18:02:26;9.30;99.90
25923;DHT22;13725;51.170;4.442;2023-02-01T18:04:52;9.30;99.90
25923;DHT22;13725;51.170;4.442;2023-02-01T18:07:17;9.30;99.90
25923;DHT22;13725;51.170;4.442;2023-02-01T18:09:43;9.30;99.90
25923;DHT22;13725;51.170;4.442;2023-02-01T18:12:20;9.30;99.90
25923;DHT22;13725;51.170;4.442;2023-02-01T18:14:46;9.40;99.90
25923;DHT22;13725;51.170;4.442;2023-02-01T18:17:12;9.40;99.90
25923;DHT22;13725;51.170;4.442;2023-02-01T18:19:39;9.40;99.90
25923;DHT22;13725;51.170;4.442;2023-02-01T18:22:05;9.40;99.90
25923;DHT22;13725;51.170;4.442;2023-02-01T18:24:31;9.30;99.90
25923;DHT22;13725;51.170;4.442;2023-02-01T18:26:59;9.30;99.90